Terminal Aerodrome Forecast
Issued by NWS

Home | Current Version | Previous Version | Text Only | Print | Product List | Glossary On
Versions: 1 2 3 4 5 6 7 8 9 10 11 12 13 14 15 16 17 18 19
000
FTUS43 KDLH 031127
TAFHYR
TAF
KHYR 031127Z 0312/0412 00000KT P6SM SCT080
     FM031600 25007KT P6SM SCT050
     FM032300 25007KT P6SM VCTS BKN060CB
      TEMPO 0400/0403 6SM TSRA BR BKN035CB
     FM040500 29003KT P6SM SCT060=

USA.gov is the U.S. government's official web portal to all federal, state and local government web resources and services.